Time;durP1;ratioP1;P1;durP2;ratioP2;P2;SDS_P1;SDS_P2;PMS_P1;PMS_P2;Temp;Humidity;BMP_temperature;BMP_pressure;BME280_temperature;BME280_humidity;BME280_pressure;Samples;Min_cycle;Max_cycle;Signal;HPM_P1;HPM_P2
2021/04/08 00:01:21;;;;;;;;;;;17.30;46.20;;;;;;5048828;28;19948;-74
2021/04/08 00:03:47;;;;;;;;;;;17.40;46.10;;;;;;5050290;28;19908;-71
2021/04/08 00:06:14;;;;;;;;;;;17.40;46.70;;;;;;5043077;28;19913;-72
2021/04/08 00:08:40;;;;;;;;;;;17.40;46.40;;;;;;5053481;28;19920;-73
2021/04/08 00:11:06;;;;;;;;;;;17.50;46.30;;;;;;5050051;28;19920;-74
2021/04/08 00:13:32;;;;;;;;;;;17.30;46.40;;;;;;5046352;28;19917;-74
2021/04/08 00:15:59;;;;;;;;;;;17.40;47.10;;;;;;5050204;28;19973;-73
2021/04/08 00:18:25;;;;;;;;;;;17.60;46.50;;;;;;5050152;28;20326;-73
2021/04/08 00:20:51;;;;;;;;;;;17.40;46.40;;;;;;5052876;28;20354;-74
2021/04/08 00:23:17;;;;;;;;;;;17.20;47.00;;;;;;5026917;28;19913;-73
2021/04/08 00:25:43;;;;;;;;;;;17.30;47.10;;;;;;5050924;28;19913;-74
2021/04/08 00:28:09;;;;;;;;;;;17.50;46.60;;;;;;5034796;28;19909;-74
2021/04/08 00:30:42;;;;;;;;;;;17.30;47.40;;;;;;5050582;28;20242;-73
2021/04/08 00:33:12;;;;;;;;;;;17.40;47.20;;;;;;5051982;28;20243;-73
2021/04/08 00:35:42;;;;;;;;;;;17.10;48.00;;;;;;5052380;28;19913;-73
2021/04/08 00:38:08;;;;;;;;;;;17.20;48.10;;;;;;5050643;28;19999;-73
2021/04/08 00:40:35;;;;;;;;;;;17.20;47.90;;;;;;5035491;28;19909;-74
2021/04/08 00:43:01;;;;;;;;;;;17.60;46.30;;;;;;5051484;28;19913;-73
2021/04/08 00:45:28;;;;;;;;;;;17.30;47.00;;;;;;5051320;28;19908;-74
2021/04/08 00:47:54;;;;;;;;;;;17.50;46.70;;;;;;5046845;28;19912;-73
2021/04/08 00:50:20;;;;;;;;;;;17.40;47.20;;;;;;5048936;28;19908;-74
2021/04/08 00:53:06;;;;;;;;;;;17.50;46.30;;;;;;5050710;28;19992;-73
2021/04/08 00:55:43;;;;;;;;;;;17.20;47.10;;;;;;5052284;28;19920;-74
2021/04/08 00:58:09;;;;;;;;;;;16.90;48.10;;;;;;5050470;28;19916;-73
2021/04/08 01:00:38;;;;;;;;;;;17.20;47.60;;;;;;5034775;28;19912;-73
2021/04/08 01:03:05;;;;;;;;;;;17.10;47.50;;;;;;5032248;28;20065;-73
2021/04/08 01:05:31;;;;;;;;;;;17.00;47.80;;;;;;5048396;28;19916;-73
2021/04/08 01:07:57;;;;;;;;;;;17.00;47.50;;;;;;5054447;28;19909;-73
2021/04/08 01:10:24;;;;;;;;;;;17.00;48.20;;;;;;5036497;28;19909;-73
2021/04/08 01:12:51;;;;;;;;;;;17.10;47.50;;;;;;5036585;28;20360;-73
2021/04/08 01:15:17;;;;;;;;;;;17.20;47.20;;;;;;5036726;28;20246;-73
2021/04/08 01:17:47;;;;;;;;;;;17.10;47.30;;;;;;5051904;28;19912;-73
2021/04/08 01:20:32;;;;;;;;;;;17.00;47.50;;;;;;5056087;28;20023;-74
2021/04/08 01:22:58;;;;;;;;;;;17.00;47.30;;;;;;5050600;28;20015;-72
2021/04/08 01:25:42;;;;;;;;;;;16.90;47.00;;;;;;5037697;28;19931;-71
2021/04/08 01:28:20;;;;;;;;;;;16.70;47.70;;;;;;5056461;28;20271;-71
2021/04/08 01:30:51;;;;;;;;;;;16.70;47.30;;;;;;5049468;28;19999;-72
2021/04/08 01:33:18;;;;;;;;;;;16.60;47.60;;;;;;5057147;28;19932;-72
2021/04/08 01:35:45;;;;;;;;;;;16.40;47.90;;;;;;5057528;28;19924;-71
2021/04/08 01:38:19;;;;;;;;;;;16.20;47.80;;;;;;5057075;28;19996;-71
2021/04/08 01:40:47;;;;;;;;;;;16.10;48.30;;;;;;5057614;28;19981;-72
2021/04/08 01:43:15;;;;;;;;;;;15.90;48.90;;;;;;5055947;28;19904;-71
2021/04/08 01:45:41;;;;;;;;;;;15.90;48.80;;;;;;5054801;28;19908;-72
2021/04/08 01:48:08;;;;;;;;;;;16.00;48.90;;;;;;5055512;28;19961;-72
2021/04/08 01:50:34;;;;;;;;;;;15.80;49.50;;;;;;5055165;28;19909;-71
2021/04/08 01:53:01;;;;;;;;;;;15.70;49.40;;;;;;5054447;28;19954;-71
2021/04/08 01:55:29;;;;;;;;;;;15.50;49.30;;;;;;5055502;28;19917;-71
2021/04/08 01:57:55;;;;;;;;;;;15.50;50.80;;;;;;5052091;28;19912;-71
2021/04/08 02:00:22;;;;;;;;;;;15.40;50.80;;;;;;5038006;28;19908;-71
2021/04/08 02:02:49;;;;;;;;;;;15.20;50.60;;;;;;5054473;28;19919;-71
2021/04/08 02:05:16;;;;;;;;;;;15.20;51.40;;;;;;5038381;28;20334;-71
2021/04/08 02:07:43;;;;;;;;;;;15.10;50.90;;;;;;5054580;28;20346;-72
2021/04/08 02:10:11;;;;;;;;;;;14.80;51.20;;;;;;5052837;28;19916;-72
2021/04/08 02:12:38;;;;;;;;;;;14.70;51.20;;;;;;5055346;28;20245;-72
2021/04/08 02:15:05;;;;;;;;;;;14.80;52.40;;;;;;5055152;28;19908;-71
2021/04/08 02:17:33;;;;;;;;;;;14.70;52.40;;;;;;5055922;28;20003;-71
2021/04/08 02:20:00;;;;;;;;;;;14.60;51.90;;;;;;5050286;28;19908;-71
2021/04/08 02:22:26;;;;;;;;;;;14.50;51.80;;;;;;5055500;28;19958;-72
2021/04/08 02:24:52;;;;;;;;;;;14.60;52.70;;;;;;5056519;28;19923;-72
2021/04/08 02:27:18;;;;;;;;;;;14.40;52.80;;;;;;5053780;28;20297;-71
2021/04/08 02:29:45;;;;;;;;;;;14.40;52.50;;;;;;5048897;28;19949;-71
2021/04/08 02:32:11;;;;;;;;;;;14.20;53.70;;;;;;5034165;28;19908;-71
2021/04/08 02:34:37;;;;;;;;;;;14.20;52.30;;;;;;5052288;28;19908;-71
2021/04/08 02:37:04;;;;;;;;;;;14.10;52.20;;;;;;5051313;28;19924;-71
2021/04/08 02:39:30;;;;;;;;;;;14.20;52.90;;;;;;5054662;28;19916;-71
2021/04/08 02:41:56;;;;;;;;;;;14.20;52.30;;;;;;5052787;28;20254;-71
2021/04/08 02:44:22;;;;;;;;;;;14.00;52.90;;;;;;5054671;28;19913;-72
2021/04/08 02:46:48;;;;;;;;;;;13.90;52.70;;;;;;5055869;28;20293;-71
2021/04/08 02:49:14;;;;;;;;;;;13.90;53.80;;;;;;5055867;28;19924;-72
2021/04/08 02:51:55;;;;;;;;;;;13.80;54.80;;;;;;5050909;28;19909;-72
2021/04/08 02:54:35;;;;;;;;;;;13.80;53.70;;;;;;5053189;28;19959;-71
2021/04/08 02:57:02;;;;;;;;;;;13.60;54.00;;;;;;5050728;28;19917;-71
2021/04/08 02:59:41;;;;;;;;;;;13.60;53.80;;;;;;5051679;28;20346;-71
2021/04/08 03:02:09;;;;;;;;;;;13.60;54.30;;;;;;5053795;28;19909;-72
2021/04/08 03:04:43;;;;;;;;;;;13.70;54.20;;;;;;5053514;28;19919;-71
2021/04/08 03:07:10;;;;;;;;;;;13.50;54.20;;;;;;5053461;28;19919;-73
2021/04/08 03:09:38;;;;;;;;;;;13.40;55.00;;;;;;5055214;28;19990;-72
2021/04/08 03:12:08;;;;;;;;;;;13.50;54.60;;;;;;5053679;28;19917;-72
2021/04/08 03:14:37;;;;;;;;;;;13.40;54.60;;;;;;5053518;28;19908;-72
2021/04/08 03:17:04;;;;;;;;;;;13.30;54.90;;;;;;5052215;28;20003;-72
2021/04/08 03:19:30;;;;;;;;;;;13.20;55.70;;;;;;5053524;28;20310;-71
2021/04/08 03:21:57;;;;;;;;;;;13.30;54.50;;;;;;5047580;28;19966;-75
2021/04/08 03:24:24;;;;;;;;;;;13.30;54.20;;;;;;5053772;28;20399;-74
2021/04/08 03:26:51;;;;;;;;;;;13.20;56.30;;;;;;5055880;28;20018;-75
2021/04/08 03:29:17;;;;;;;;;;;13.20;55.10;;;;;;5053556;28;19916;-75
2021/04/08 03:31:44;;;;;;;;;;;13.30;54.60;;;;;;5035137;28;19999;-75
2021/04/08 03:34:10;;;;;;;;;;;13.20;55.10;;;;;;5051210;28;19909;-75
2021/04/08 03:36:37;;;;;;;;;;;13.20;55.00;;;;;;5051276;28;19916;-76
2021/04/08 03:39:06;;;;;;;;;;;13.20;55.20;;;;;;5051767;28;19909;-75
2021/04/08 03:41:39;;;;;;;;;;;13.20;54.70;;;;;;5052164;28;19916;-72
2021/04/08 03:44:09;;;;;;;;;;;13.00;57.10;;;;;;5054612;28;19913;-75
2021/04/08 03:46:36;;;;;;;;;;;13.00;56.50;;;;;;5049597;28;19909;-75
2021/04/08 03:49:03;;;;;;;;;;;12.80;58.20;;;;;;5041370;28;20015;-75
2021/04/08 03:51:30;;;;;;;;;;;13.00;55.80;;;;;;5049867;28;19913;-75
2021/04/08 03:53:56;;;;;;;;;;;12.90;55.50;;;;;;5047965;28;19917;-75
2021/04/08 03:56:24;;;;;;;;;;;13.00;55.50;;;;;;5051324;28;19920;-74
2021/04/08 03:58:51;;;;;;;;;;;13.10;55.90;;;;;;5049772;28;19909;-75
2021/04/08 04:01:18;;;;;;;;;;;13.00;55.80;;;;;;5048739;28;19915;-75
2021/04/08 04:03:44;;;;;;;;;;;12.90;55.30;;;;;;5053530;28;19915;-75
2021/04/08 04:06:11;;;;;;;;;;;12.90;55.80;;;;;;5053541;28;19912;-75
2021/04/08 04:08:38;;;;;;;;;;;12.90;57.30;;;;;;5051267;28;19909;-75
2021/04/08 04:11:04;;;;;;;;;;;13.10;56.10;;;;;;5051647;28;19963;-74
2021/04/08 04:13:31;;;;;;;;;;;13.20;56.50;;;;;;5051326;28;19908;-75
2021/04/08 04:15:57;;;;;;;;;;;13.20;56.80;;;;;;5051842;28;19992;-75
2021/04/08 04:18:23;;;;;;;;;;;13.10;55.80;;;;;;5051984;28;20489;-74
2021/04/08 04:20:49;;;;;;;;;;;13.20;56.20;;;;;;5052831;28;20223;-75
2021/04/08 04:23:17;;;;;;;;;;;13.10;56.10;;;;;;5050545;28;19908;-75
2021/04/08 04:25:43;;;;;;;;;;;13.10;55.70;;;;;;5049618;28;19916;-75
2021/04/08 04:28:09;;;;;;;;;;;13.00;56.30;;;;;;5052540;28;20319;-75
2021/04/08 04:30:35;;;;;;;;;;;13.00;56.00;;;;;;5052070;28;19913;-74
2021/04/08 04:33:01;;;;;;;;;;;13.00;56.80;;;;;;5054876;28;19992;-74
2021/04/08 04:35:27;;;;;;;;;;;13.00;56.00;;;;;;5053780;28;20334;-74
2021/04/08 04:37:53;;;;;;;;;;;13.00;55.90;;;;;;5054703;28;19916;-77
2021/04/08 04:40:20;;;;;;;;;;;13.20;56.30;;;;;;5052303;28;20071;-72
2021/04/08 04:42:46;;;;;;;;;;;13.10;57.50;;;;;;5051645;28;20327;-74
2021/04/08 04:45:12;;;;;;;;;;;13.00;56.00;;;;;;5051681;28;19913;-74
2021/04/08 04:47:39;;;;;;;;;;;13.10;55.90;;;;;;5050675;28;19909;-74
2021/04/08 04:50:06;;;;;;;;;;;13.10;55.90;;;;;;5052913;28;19947;-73
2021/04/08 04:52:32;;;;;;;;;;;12.90;56.70;;;;;;5053108;28;19912;-75
2021/04/08 04:54:58;;;;;;;;;;;13.10;56.10;;;;;;5048845;28;19916;-74
2021/04/08 04:57:24;;;;;;;;;;;13.00;55.90;;;;;;5033343;28;19920;-74
2021/04/08 04:59:50;;;;;;;;;;;13.00;56.30;;;;;;5051709;28;19909;-74
2021/04/08 05:02:16;;;;;;;;;;;13.00;56.20;;;;;;5051876;28;19913;-73
2021/04/08 05:04:43;;;;;;;;;;;13.10;56.20;;;;;;5047931;28;20295;-74
2021/04/08 05:07:09;;;;;;;;;;;13.10;56.40;;;;;;5048053;28;19909;-74
2021/04/08 05:09:35;;;;;;;;;;;13.10;55.70;;;;;;5049916;28;19915;-73
2021/04/08 05:12:01;;;;;;;;;;;13.00;55.80;;;;;;5051264;28;20264;-74
2021/04/08 05:14:27;;;;;;;;;;;13.00;55.80;;;;;;5047690;28;19927;-73
2021/04/08 05:16:54;;;;;;;;;;;12.90;55.80;;;;;;5051622;28;20396;-73
2021/04/08 05:19:20;;;;;;;;;;;13.00;55.90;;;;;;5053031;28;19921;-74
2021/04/08 05:21:48;;;;;;;;;;;12.90;56.60;;;;;;5050783;28;20004;-75
2021/04/08 05:24:14;;;;;;;;;;;13.00;56.30;;;;;;5052503;28;19908;-75
2021/04/08 05:26:40;;;;;;;;;;;13.00;57.40;;;;;;5050039;28;20231;-74
2021/04/08 05:29:06;;;;;;;;;;;13.00;57.20;;;;;;5048950;28;19966;-74
2021/04/08 05:31:32;;;;;;;;;;;13.00;57.30;;;;;;5049119;28;20285;-74
2021/04/08 05:33:58;;;;;;;;;;;13.00;57.30;;;;;;5051665;28;19916;-74
2021/04/08 05:36:24;;;;;;;;;;;12.90;56.80;;;;;;5050650;28;20062;-75
2021/04/08 05:38:50;;;;;;;;;;;12.90;58.20;;;;;;5048266;28;20015;-75
2021/04/08 05:41:16;;;;;;;;;;;13.00;57.20;;;;;;5047524;28;19920;-74
2021/04/08 05:43:43;;;;;;;;;;;13.00;57.10;;;;;;5050680;28;19912;-75
2021/04/08 05:46:10;;;;;;;;;;;13.00;57.00;;;;;;5051842;28;20266;-74
2021/04/08 05:48:36;;;;;;;;;;;12.90;56.50;;;;;;5050321;28;19913;-74
2021/04/08 05:51:03;;;;;;;;;;;12.90;56.80;;;;;;5051904;28;20103;-74
2021/04/08 05:53:29;;;;;;;;;;;12.80;57.00;;;;;;5051483;28;19920;-75
2021/04/08 05:55:56;;;;;;;;;;;12.70;58.40;;;;;;5054541;28;20380;-74
2021/04/08 05:58:22;;;;;;;;;;;12.70;57.50;;;;;;5056869;28;19912;-75
2021/04/08 06:00:48;;;;;;;;;;;12.70;57.60;;;;;;5038731;28;19909;-75
2021/04/08 06:03:14;;;;;;;;;;;12.90;57.30;;;;;;5056138;28;19928;-74
2021/04/08 06:05:40;;;;;;;;;;;12.90;57.40;;;;;;5055670;28;19940;-74
2021/04/08 06:08:06;;;;;;;;;;;12.80;58.00;;;;;;5054596;28;20246;-73
2021/04/08 06:10:32;;;;;;;;;;;12.70;57.90;;;;;;5056200;28;19923;-75
2021/04/08 06:12:58;;;;;;;;;;;12.80;57.80;;;;;;5053525;28;19909;-75
2021/04/08 06:15:26;;;;;;;;;;;12.80;57.40;;;;;;5053669;28;19919;-74
2021/04/08 06:17:52;;;;;;;;;;;12.80;57.50;;;;;;5054968;28;19926;-74
2021/04/08 06:20:18;;;;;;;;;;;12.80;58.00;;;;;;5056314;28;20412;-75
2021/04/08 06:22:44;;;;;;;;;;;13.00;57.80;;;;;;5054284;28;19916;-74
2021/04/08 06:25:10;;;;;;;;;;;12.90;57.50;;;;;;5054383;28;19961;-75
2021/04/08 06:27:36;;;;;;;;;;;12.80;57.30;;;;;;5056065;28;19909;-75
2021/04/08 06:30:05;;;;;;;;;;;12.90;58.70;;;;;;5054459;28;20402;-75
2021/04/08 06:32:31;;;;;;;;;;;13.00;58.90;;;;;;5054919;28;20331;-74
2021/04/08 06:34:57;;;;;;;;;;;12.90;57.70;;;;;;5053515;28;20016;-74
2021/04/08 06:37:23;;;;;;;;;;;12.80;57.80;;;;;;5053559;28;19940;-75
2021/04/08 06:39:49;;;;;;;;;;;12.90;58.50;;;;;;5055687;28;19948;-76
2021/04/08 06:42:20;;;;;;;;;;;12.80;58.50;;;;;;5054468;28;19908;-75
2021/04/08 06:44:50;;;;;;;;;;;12.80;58.60;;;;;;5052569;28;19939;-75
2021/04/08 06:47:21;;;;;;;;;;;12.80;58.20;;;;;;5055339;28;19927;-75
2021/04/08 06:49:49;;;;;;;;;;;12.90;58.90;;;;;;5052921;28;19915;-75
2021/04/08 06:52:17;;;;;;;;;;;12.90;58.30;;;;;;5053363;28;20003;-74
2021/04/08 06:54:44;;;;;;;;;;;12.90;58.30;;;;;;5036803;28;19919;-76
2021/04/08 06:57:10;;;;;;;;;;;12.90;58.30;;;;;;5055524;28;20017;-77
2021/04/08 06:59:36;;;;;;;;;;;12.90;59.10;;;;;;5053656;28;19998;-76
2021/04/08 07:02:02;;;;;;;;;;;12.80;59.50;;;;;;5053106;28;20369;-76
2021/04/08 07:04:28;;;;;;;;;;;12.80;58.70;;;;;;5052752;28;19927;-75
2021/04/08 07:06:54;;;;;;;;;;;12.80;59.20;;;;;;5053086;28;19908;-75
2021/04/08 07:09:20;;;;;;;;;;;12.90;59.50;;;;;;5054545;28;19942;-74
2021/04/08 07:11:46;;;;;;;;;;;12.70;60.00;;;;;;5053458;28;19948;-74
2021/04/08 07:14:12;;;;;;;;;;;12.80;59.30;;;;;;5054903;28;19988;-74
2021/04/08 07:16:39;;;;;;;;;;;12.90;59.30;;;;;;5052666;28;19963;-74
2021/04/08 07:19:05;;;;;;;;;;;12.90;59.30;;;;;;5055089;28;19927;-75
2021/04/08 07:21:35;;;;;;;;;;;13.00;59.00;;;;;;5053943;28;20132;-74
2021/04/08 07:24:20;;;;;;;;;;;13.00;58.80;;;;;;5052855;28;19970;-74
2021/04/08 07:27:02;;;;;;;;;;;13.00;60.60;;;;;;5035923;28;20321;-74
2021/04/08 07:29:41;;;;;;;;;;;13.00;58.70;;;;;;5036626;28;19921;-74
2021/04/08 07:32:07;;;;;;;;;;;12.90;58.60;;;;;;5051964;28;19948;-74
2021/04/08 07:34:37;;;;;;;;;;;13.00;58.60;;;;;;5052283;28;20086;-75
2021/04/08 07:37:04;;;;;;;;;;;12.90;59.40;;;;;;5050533;28;20509;-74
2021/04/08 07:39:37;;;;;;;;;;;12.90;59.20;;;;;;5054189;28;20342;-74
2021/04/08 07:42:05;;;;;;;;;;;12.90;58.50;;;;;;5052225;28;19999;-74
2021/04/08 07:44:51;;;;;;;;;;;12.80;59.90;;;;;;5052723;28;20051;-74
2021/04/08 07:47:19;;;;;;;;;;;12.80;59.30;;;;;;5051601;28;20393;-74
2021/04/08 07:49:45;;;;;;;;;;;12.80;58.50;;;;;;5053173;28;19919;-75
2021/04/08 07:52:28;;;;;;;;;;;12.90;59.00;;;;;;5053985;28;20207;-74
2021/04/08 07:55:00;;;;;;;;;;;13.00;58.60;;;;;;5035032;28;19919;-75
2021/04/08 07:57:27;;;;;;;;;;;12.90;58.30;;;;;;5052901;28;19925;-74
2021/04/08 07:59:53;;;;;;;;;;;13.00;58.60;;;;;;5053535;28;19908;-74
2021/04/08 08:02:23;;;;;;;;;;;13.10;58.40;;;;;;5034517;28;20010;-74
2021/04/08 08:04:50;;;;;;;;;;;13.00;58.70;;;;;;5052173;28;19966;-74
2021/04/08 08:07:26;;;;;;;;;;;12.90;58.20;;;;;;5051927;28;19909;-75
2021/04/08 08:09:52;;;;;;;;;;;12.90;58.20;;;;;;5052265;28;19912;-74
2021/04/08 08:12:18;;;;;;;;;;;12.90;58.30;;;;;;5053566;28;19904;-75
2021/04/08 08:14:44;;;;;;;;;;;12.90;58.50;;;;;;5054108;28;19908;-75
2021/04/08 08:17:12;;;;;;;;;;;12.80;58.50;;;;;;5051596;28;20338;-75
2021/04/08 08:19:41;;;;;;;;;;;13.10;58.80;;;;;;5053009;28;19916;-75
2021/04/08 08:22:07;;;;;;;;;;;12.90;58.60;;;;;;5051505;28;20392;-74
2021/04/08 08:24:33;;;;;;;;;;;12.90;59.10;;;;;;5050693;28;20004;-75
2021/04/08 08:26:59;;;;;;;;;;;13.00;59.00;;;;;;5052763;28;19909;-75
2021/04/08 08:29:26;;;;;;;;;;;13.00;58.70;;;;;;5051362;28;19912;-74
2021/04/08 08:31:52;;;;;;;;;;;12.90;59.20;;;;;;5031938;28;19913;-75
2021/04/08 08:34:22;;;;;;;;;;;12.90;59.80;;;;;;5053211;28;19962;-75
2021/04/08 08:36:50;;;;;;;;;;;13.00;58.80;;;;;;5054810;28;19948;-74
2021/04/08 08:39:17;;;;;;;;;;;12.80;59.30;;;;;;5056393;28;19913;-74
2021/04/08 08:41:46;;;;;;;;;;;12.90;59.90;;;;;;5052187;28;19908;-74
2021/04/08 08:44:13;;;;;;;;;;;12.90;59.30;;;;;;5051130;28;19952;-74
2021/04/08 08:46:43;;;;;;;;;;;12.70;59.80;;;;;;5051471;28;19909;-74
2021/04/08 08:49:09;;;;;;;;;;;12.60;60.50;;;;;;5051931;28;20203;-74
2021/04/08 08:51:38;;;;;;;;;;;12.60;60.10;;;;;;5052407;28;19916;-74
2021/04/08 08:54:05;;;;;;;;;;;12.60;59.70;;;;;;5050490;28;20039;-75
2021/04/08 08:56:32;;;;;;;;;;;12.70;59.80;;;;;;5049868;28;19913;-75
2021/04/08 08:58:59;;;;;;;;;;;12.80;59.70;;;;;;5051483;28;19909;-74
2021/04/08 09:01:25;;;;;;;;;;;12.70;59.40;;;;;;5034119;28;19908;-74
2021/04/08 09:03:51;;;;;;;;;;;12.70;60.00;;;;;;5052096;28;20296;-75
2021/04/08 09:06:20;;;;;;;;;;;12.80;59.40;;;;;;5052869;28;20027;-75
2021/04/08 09:08:51;;;;;;;;;;;12.90;60.50;;;;;;5051896;28;19909;-75
2021/04/08 09:11:23;;;;;;;;;;;12.90;59.30;;;;;;5051063;28;20015;-75
2021/04/08 09:13:53;;;;;;;;;;;12.80;59.50;;;;;;5051143;28;19917;-74
2021/04/08 09:16:19;;;;;;;;;;;12.80;59.60;;;;;;5051539;28;20005;-74
2021/04/08 09:18:58;;;;;;;;;;;12.70;59.80;;;;;;5050154;28;20243;-74
2021/04/08 09:21:25;;;;;;;;;;;12.60;61.40;;;;;;5051508;28;19995;-74
2021/04/08 09:24:09;;;;;;;;;;;12.70;60.20;;;;;;5051661;28;20334;-74
2021/04/08 09:26:37;;;;;;;;;;;12.80;60.40;;;;;;5052473;28;19909;-74
2021/04/08 09:29:03;;;;;;;;;;;12.80;60.70;;;;;;5054446;28;19920;-74
2021/04/08 09:31:30;;;;;;;;;;;12.80;60.20;;;;;;5037677;28;19919;-74
2021/04/08 09:34:00;;;;;;;;;;;12.80;59.90;;;;;;5056780;28;19999;-74
2021/04/08 09:36:27;;;;;;;;;;;12.80;60.60;;;;;;5055941;28;19966;-74
2021/04/08 09:38:56;;;;;;;;;;;12.80;60.40;;;;;;5054470;28;19958;-74
2021/04/08 09:41:40;;;;;;;;;;;12.70;61.30;;;;;;5054655;28;19974;-74
2021/04/08 09:44:06;;;;;;;;;;;12.70;61.10;;;;;;5054533;28;19916;-74
2021/04/08 09:46:40;;;;;;;;;;;12.60;61.40;;;;;;5055733;28;19916;-74
2021/04/08 09:49:07;;;;;;;;;;;12.70;61.20;;;;;;5054715;28;20338;-74
2021/04/08 09:51:34;;;;;;;;;;;12.90;60.80;;;;;;5056256;28;19909;-74
2021/04/08 09:54:10;;;;;;;;;;;12.70;61.50;;;;;;5053760;28;19917;-74
2021/04/08 09:56:47;;;;;;;;;;;12.70;61.20;;;;;;5054979;28;19913;-74
2021/04/08 09:59:14;;;;;;;;;;;12.80;60.40;;;;;;5054467;28;19943;-74
2021/04/08 10:01:40;;;;;;;;;;;13.00;60.10;;;;;;5052747;28;19924;-74
2021/04/08 10:04:11;;;;;;;;;;;13.00;59.90;;;;;;5054336;28;19932;-74
2021/04/08 10:06:37;;;;;;;;;;;13.00;60.10;;;;;;5054286;28;19962;-74
2021/04/08 10:09:10;;;;;;;;;;;13.10;59.80;;;;;;5054796;28;19966;-74
2021/04/08 10:11:37;;;;;;;;;;;13.00;60.50;;;;;;5056091;28;19913;-75
2021/04/08 10:14:23;;;;;;;;;;;13.10;59.90;;;;;;5055081;28;20003;-74
2021/04/08 10:16:59;;;;;;;;;;;13.00;60.50;;;;;;5055585;28;20019;-74
2021/04/08 10:19:29;;;;;;;;;;;13.20;59.70;;;;;;5055485;28;19915;-74
2021/04/08 10:21:55;;;;;;;;;;;13.10;59.50;;;;;;5054101;28;19934;-75
2021/04/08 10:24:21;;;;;;;;;;;12.90;61.30;;;;;;5049959;28;20196;-74
2021/04/08 10:26:47;;;;;;;;;;;13.10;60.80;;;;;;5054351;28;20019;-74
2021/04/08 10:29:13;;;;;;;;;;;13.10;60.00;;;;;;5054459;28;19912;-74
2021/04/08 10:31:43;;;;;;;;;;;13.10;59.80;;;;;;5056299;28;19909;-73
2021/04/08 10:34:10;;;;;;;;;;;13.10;59.80;;;;;;5054730;28;19915;-73
2021/04/08 10:37:02;;;;;;;;;;;12.90;60.70;;;;;;5057965;28;19913;-73
2021/04/08 10:39:35;;;;;;;;;;;12.80;60.80;;;;;;5050991;28;19915;-74
2021/04/08 10:42:09;;;;;;;;;;;12.90;60.80;;;;;;5053779;28;19966;-74
2021/04/08 10:44:39;;;;;;;;;;;13.10;60.30;;;;;;5052461;28;19913;-74
2021/04/08 10:47:09;;;;;;;;;;;13.10;60.80;;;;;;5055841;28;20262;-74
2021/04/08 10:49:37;;;;;;;;;;;12.90;60.80;;;;;;5053830;28;19909;-73
2021/04/08 10:52:05;;;;;;;;;;;13.00;60.60;;;;;;5045995;28;19970;-74
2021/04/08 10:54:32;;;;;;;;;;;12.80;60.90;;;;;;5053731;28;20255;-74
2021/04/08 10:56:59;;;;;;;;;;;12.80;60.70;;;;;;5052548;28;19913;-74
2021/04/08 10:59:26;;;;;;;;;;;13.00;60.90;;;;;;5053994;28;20386;-73
2021/04/08 11:01:53;;;;;;;;;;;13.20;59.70;;;;;;5055362;28;19920;-74
2021/04/08 11:04:19;;;;;;;;;;;12.90;61.00;;;;;;5053433;28;19909;-73
2021/04/08 11:06:49;;;;;;;;;;;13.00;61.20;;;;;;5054741;28;19916;-74
2021/04/08 11:09:41;;;;;;;;;;;12.80;60.90;;;;;;5053144;28;19916;-75
2021/04/08 11:12:15;;;;;;;;;;;13.00;61.20;;;;;;5048937;28;20350;-73
2021/04/08 11:14:45;;;;;;;;;;;12.70;61.70;;;;;;5054149;28;19908;-74
2021/04/08 11:17:11;;;;;;;;;;;12.80;61.20;;;;;;5036685;28;19908;-74
2021/04/08 11:19:37;;;;;;;;;;;12.80;61.20;;;;;;5054566;28;19915;-74
2021/04/08 11:22:03;;;;;;;;;;;12.80;60.70;;;;;;5035959;28;19909;-73
2021/04/08 11:24:32;;;;;;;;;;;12.90;61.10;;;;;;5053804;28;19912;-74
2021/04/08 11:26:58;;;;;;;;;;;12.80;61.10;;;;;;5055221;28;20273;-74
2021/04/08 11:29:26;;;;;;;;;;;13.00;60.10;;;;;;5052552;28;20346;-73
2021/04/08 11:32:02;;;;;;;;;;;12.60;61.80;;;;;;5053738;28;19913;-74
2021/04/08 11:34:39;;;;;;;;;;;12.70;61.30;;;;;;5052875;28;19915;-73
2021/04/08 11:37:05;;;;;;;;;;;12.60;61.20;;;;;;5035283;28;19927;-74
2021/04/08 11:39:32;;;;;;;;;;;12.70;60.80;;;;;;5053339;28;19908;-74
2021/04/08 11:42:12;;;;;;;;;;;12.90;61.00;;;;;;5051993;28;19915;-74
2021/04/08 11:44:39;;;;;;;;;;;13.10;60.20;;;;;;5053302;28;20321;-73
2021/04/08 11:47:13;;;;;;;;;;;12.80;61.60;;;;;;5051221;28;19919;-73
2021/04/08 11:49:47;;;;;;;;;;;12.70;61.60;;;;;;5054011;28;19909;-74
2021/04/08 11:52:14;;;;;;;;;;;12.70;61.70;;;;;;5035690;28;20215;-73
2021/04/08 11:54:58;;;;;;;;;;;12.60;61.90;;;;;;5053558;28;19908;-73
2021/04/08 11:57:24;;;;;;;;;;;12.70;62.20;;;;;;5052339;28;19996;-74
2021/04/08 11:59:50;;;;;;;;;;;12.70;61.80;;;;;;5052515;28;19913;-74
2021/04/08 12:02:29;;;;;;;;;;;12.80;61.70;;;;;;5035262;28;19912;-73
2021/04/08 12:04:56;;;;;;;;;;;12.80;61.10;;;;;;5054278;28;19915;-73
2021/04/08 12:07:22;;;;;;;;;;;12.80;61.50;;;;;;5053577;28;20021;-73
2021/04/08 12:09:48;;;;;;;;;;;12.80;61.30;;;;;;5051208;28;20250;-73
2021/04/08 12:12:15;;;;;;;;;;;12.80;60.70;;;;;;5050400;28;19916;-73
2021/04/08 12:15:04;;;;;;;;;;;12.70;61.40;;;;;;5052748;28;20779;-74
2021/04/08 12:17:31;;;;;;;;;;;12.70;61.70;;;;;;5053603;28;19913;-74
2021/04/08 12:20:16;;;;;;;;;;;12.90;61.20;;;;;;5052382;28;20343;-73
2021/04/08 12:22:43;;;;;;;;;;;12.80;61.70;;;;;;5051768;28;20465;-73
2021/04/08 12:25:10;;;;;;;;;;;12.60;62.60;;;;;;5052396;28;19993;-74
2021/04/08 12:27:36;;;;;;;;;;;12.60;63.10;;;;;;5054948;28;20432;-73
2021/04/08 12:30:03;;;;;;;;;;;12.50;63.10;;;;;;5053748;28;19917;-73
2021/04/08 12:32:30;;;;;;;;;;;12.60;62.10;;;;;;5051949;28;20014;-73
2021/04/08 12:34:56;;;;;;;;;;;12.60;62.00;;;;;;5052729;28;19924;-74
2021/04/08 12:37:22;;;;;;;;;;;12.60;61.60;;;;;;5051857;28;20019;-73
2021/04/08 12:39:49;;;;;;;;;;;12.60;61.90;;;;;;5053233;28;19909;-74
2021/04/08 12:42:15;;;;;;;;;;;12.60;62.10;;;;;;5052511;28;19963;-73
2021/04/08 12:44:41;;;;;;;;;;;12.50;62.20;;;;;;5051640;28;19904;-73
2021/04/08 12:47:08;;;;;;;;;;;12.80;61.90;;;;;;5052975;28;20418;-74
2021/04/08 12:49:34;;;;;;;;;;;12.90;61.30;;;;;;5043393;28;19927;-73
2021/04/08 12:52:00;;;;;;;;;;;12.90;60.90;;;;;;5034092;28;19908;-73
2021/04/08 12:54:27;;;;;;;;;;;12.80;60.90;;;;;;5049324;28;20250;-74
2021/04/08 12:56:53;;;;;;;;;;;12.90;61.20;;;;;;5033689;28;19919;-73
2021/04/08 12:59:19;;;;;;;;;;;13.00;60.60;;;;;;5050852;28;20295;-74
2021/04/08 13:01:45;;;;;;;;;;;12.90;61.40;;;;;;5052502;28;19916;-73
2021/04/08 13:04:11;;;;;;;;;;;13.00;60.80;;;;;;5056009;28;19905;-74
2021/04/08 13:06:37;;;;;;;;;;;12.90;61.20;;;;;;5060014;28;19919;-74
2021/04/08 13:09:03;;;;;;;;;;;12.90;61.00;;;;;;5059280;28;20021;-73
2021/04/08 13:11:29;;;;;;;;;;;13.00;60.70;;;;;;5058884;28;20357;-73
2021/04/08 13:13:55;;;;;;;;;;;12.80;61.00;;;;;;5057528;28;20245;-73
2021/04/08 13:16:21;;;;;;;;;;;12.80;61.70;;;;;;5059266;28;20334;-73
2021/04/08 13:18:47;;;;;;;;;;;12.70;61.40;;;;;;5058871;28;20261;-73
2021/04/08 13:21:13;;;;;;;;;;;12.80;61.00;;;;;;5059041;28;19909;-73
2021/04/08 13:23:39;;;;;;;;;;;12.80;60.80;;;;;;5057582;28;19924;-73
2021/04/08 13:26:05;;;;;;;;;;;12.60;61.70;;;;;;5059388;28;19930;-73
2021/04/08 13:28:31;;;;;;;;;;;12.60;61.20;;;;;;5056596;28;19957;-73
2021/04/08 13:30:57;;;;;;;;;;;12.60;62.10;;;;;;5056945;28;19908;-73
2021/04/08 13:33:24;;;;;;;;;;;12.60;61.80;;;;;;5059024;28;19916;-73
2021/04/08 13:35:50;;;;;;;;;;;12.60;62.40;;;;;;5058065;28;19923;-74
2021/04/08 13:38:16;;;;;;;;;;;12.70;61.60;;;;;;5057070;28;19921;-73
2021/04/08 13:40:42;;;;;;;;;;;12.80;61.50;;;;;;5058279;28;19970;-74
2021/04/08 13:43:08;;;;;;;;;;;12.90;61.00;;;;;;5056875;28;19916;-74
2021/04/08 13:45:34;;;;;;;;;;;12.70;61.60;;;;;;5042877;28;19908;-73
2021/04/08 13:48:00;;;;;;;;;;;12.60;61.40;;;;;;5048798;28;19917;-74
2021/04/08 13:50:26;;;;;;;;;;;12.40;62.30;;;;;;5058010;28;20256;-73
2021/04/08 13:52:52;;;;;;;;;;;12.60;62.20;;;;;;5056404;28;19917;-74
2021/04/08 13:55:19;;;;;;;;;;;12.50;61.70;;;;;;5057899;28;20008;-73
2021/04/08 13:57:45;;;;;;;;;;;12.40;62.20;;;;;;5055116;28;19916;-74
2021/04/08 14:00:13;;;;;;;;;;;12.50;62.00;;;;;;5040442;28;19995;-73
2021/04/08 14:02:40;;;;;;;;;;;12.60;62.10;;;;;;5060049;28;19919;-74
2021/04/08 14:05:07;;;;;;;;;;;12.70;61.40;;;;;;5058932;28;19932;-73
2021/04/08 14:07:33;;;;;;;;;;;12.80;61.80;;;;;;5055960;28;19909;-73
2021/04/08 14:09:59;;;;;;;;;;;12.80;61.60;;;;;;5057976;28;20255;-74
2021/04/08 14:12:25;;;;;;;;;;;12.60;61.90;;;;;;5054386;28;20250;-73
2021/04/08 14:14:51;;;;;;;;;;;12.60;62.40;;;;;;5055661;28;19999;-74
2021/04/08 14:17:17;;;;;;;;;;;12.60;61.60;;;;;;5055994;28;19916;-73
2021/04/08 14:19:43;;;;;;;;;;;12.70;61.90;;;;;;5054382;28;19909;-73
2021/04/08 14:22:09;;;;;;;;;;;12.50;61.90;;;;;;5056519;28;19909;-73